Hlavní strana
METAR-TAF:

METAR-TAF

Letiště :

Donau

Neuburg, Německo

zeměpisná šířka: 48-43N, zeměpisná délka: 011-13E, výška: 380 m

Aktuální stav počasí

Zpráva byla vytvořena před 51 minutami, v 21:20 UTC
Západní vítr 4 kt
Teplota 7°C
Vlhkost vzduchu 81%
Tlak 1029 hPa
Viditelnost 10 km a více
Oblačno až skoro zataženo ve výšce 5500 ft

METAR: ETSN 212120Z 27004KT 9999 BKN055 07/04 Q1029 BLU

Čas: 23:11 (22:11 UTC)

Předpověď počasí

Zpráva byla vytvořena před 6 hodinami a 6 minutami, v 16:05 UTC
Předpověď platná od 21 v 16 UTC do 21 v 24 UTC
Západní vítr 6 kt
Viditelnost 10 km a více
Polojasno ve výšce 3000 ft
Oblačno až skoro zataženo ve výšce 5000 ft
Dočasný
od 21 v 15 UTC do 21 v 24 UTC
Západní vítr 5 kt
Viditelnost: 1610 m
Skoro jasno ve výšce 3000 ft
Polojasno ve výšce 5000 ft

TAF: ETSN 211605Z 2116/2124 28006KT 9999 NSW SCT030 BKN050 TEMPO 2115/2124 26005KT 9999 NSW FEW030 SCT050 CANCEL 1610 BY ETGL

Stav a předpovědi počasí z více než 4 000 letišť (zprávy METAR a TAF).

Červené a žluté tečky na mapě představují dostupné meteorologické stanice.

Když kurzor umístíte na tečku, zobrazí se název stanice.

Pak kliknutím zobrazíte stav a předpověď počasí.

Chcete-li změnit mapu, kliknutím na zelené tlačítko se znaménkem +mapu přiblížíte, kliknutím na zelené tlačítko se znaménkem – mapu oddálíte a kliknutím na zelené šipky přejdete na sousední mapy.


METAR-TAF: